sensor_id;sensor_type;location;lat;lon;timestamp;pressure;altitude;pressure_sealevel;temperature;humidity
54439;BME280;40347;53.848;27.498;2023-09-07T00:00:42;1024.5;;;14;68
54439;BME280;40347;53.848;27.498;2023-09-07T00:05:56;1024.6;;;13.9;68.2
54439;BME280;40347;53.848;27.498;2023-09-07T00:10:44;1024.6;;;13.9;68.4
54439;BME280;40347;53.848;27.498;2023-09-07T00:15:44;1024.6;;;13.8;68.3
54439;BME280;40347;53.848;27.498;2023-09-07T00:21:02;1024.7;;;13.8;68.4
54439;BME280;40347;53.848;27.498;2023-09-07T00:25:52;1024.6;;;13.8;68.5
54439;BME280;40347;53.848;27.498;2023-09-07T00:31:12;1024.7;;;13.8;68.5
54439;BME280;40347;53.848;27.498;2023-09-07T00:35:56;1024.7;;;13.7;68.9
54439;BME280;40347;53.848;27.498;2023-09-07T00:40:48;1024.7;;;13.7;69
54439;BME280;40347;53.848;27.498;2023-09-07T00:45:46;1024.7;;;13.7;69.3
54439;BME280;40347;53.848;27.498;2023-09-07T00:50:54;1024.7;;;13.5;69.7
54439;BME280;40347;53.848;27.498;2023-09-07T00:55:57;1024.8;;;13.4;70.2
54439;BME280;40347;53.848;27.498;2023-09-07T01:00:58;1024.8;;;13.4;70
54439;BME280;40347;53.848;27.498;2023-09-07T01:05:36;1024.9;;;13.3;70.4
54439;BME280;40347;53.848;27.498;2023-09-07T01:10:54;1024.9;;;13.3;70.1
54439;BME280;40347;53.848;27.498;2023-09-07T01:15:52;1025;;;13.2;70.1
54439;BME280;40347;53.848;27.498;2023-09-07T01:20:48;1025;;;13.2;70.7
54439;BME280;40347;53.848;27.498;2023-09-07T01:25:48;1025;;;13.1;70.8
54439;BME280;40347;53.848;27.498;2023-09-07T01:30:48;1025;;;13.2;71
54439;BME280;40347;53.848;27.498;2023-09-07T01:35:46;1025;;;13.1;71.3
54439;BME280;40347;53.848;27.498;2023-09-07T01:40:34;1024.9;;;13;71.3
54439;BME280;40347;53.848;27.498;2023-09-07T01:46:00;1024.9;;;12.9;71.7
54439;BME280;40347;53.848;27.498;2023-09-07T01:50:51;1025;;;12.8;71.6
54439;BME280;40347;53.848;27.498;2023-09-07T01:55:34;1025;;;12.9;71.9
54439;BME280;40347;53.848;27.498;2023-09-07T02:00:42;1024.9;;;13;71.5
54439;BME280;40347;53.848;27.498;2023-09-07T02:05:45;1025;;;12.9;71.3
54439;BME280;40347;53.848;27.498;2023-09-07T02:10:34;1025;;;12.8;71.5
54439;BME280;40347;53.848;27.498;2023-09-07T02:15:54;1025;;;12.8;71.7
54439;BME280;40347;53.848;27.498;2023-09-07T02:21:12;1025.1;;;12.7;72.2
54439;BME280;40347;53.848;27.498;2023-09-07T02:26:00;1025.2;;;12.6;72.6
54439;BME280;40347;53.848;27.498;2023-09-07T02:30:34;1025.2;;;12.6;72.3
54439;BME280;40347;53.848;27.498;2023-09-07T02:35:47;1025.2;;;12.6;72.8
54439;BME280;40347;53.848;27.498;2023-09-07T02:41:08;1025.3;;;12.5;72.9
54439;BME280;40347;53.848;27.498;2023-09-07T02:45:56;1025.4;;;12.5;73.2
54439;BME280;40347;53.848;27.498;2023-09-07T02:50:34;1025.5;;;12.4;73.5
54439;BME280;40347;53.848;27.498;2023-09-07T02:55:42;1025.5;;;12.5;73.5
54439;BME280;40347;53.848;27.498;2023-09-07T03:00:48;1025.6;;;12.4;73.5
54439;BME280;40347;53.848;27.498;2023-09-07T03:05:34;1025.7;;;12.3;73.4
54439;BME280;40347;53.848;27.498;2023-09-07T03:10:34;1025.7;;;12.2;73.4
54439;BME280;40347;53.848;27.498;2023-09-07T03:16:01;1025.8;;;12.2;73.6
54439;BME280;40347;53.848;27.498;2023-09-07T03:20:42;1025.8;;;12.2;73.8
54439;BME280;40347;53.848;27.498;2023-09-07T03:25:34;1025.8;;;12.2;73.9
54439;BME280;40347;53.848;27.498;2023-09-07T03:30:58;1025.9;;;12.2;73.5
54439;BME280;40347;53.848;27.498;2023-09-07T03:35:56;1025.9;;;12.2;73.9
54439;BME280;40347;53.848;27.498;2023-09-07T03:40:54;1025.9;;;12.1;74.1
54439;BME280;40347;53.848;27.498;2023-09-07T03:45:34;1025.9;;;12.2;74.2
54439;BME280;40347;53.848;27.498;2023-09-07T03:50:34;1026;;;12.2;73.9
54439;BME280;40347;53.848;27.498;2023-09-07T03:55:48;1026;;;12.3;74
54439;BME280;40347;53.848;27.498;2023-09-07T04:00:34;1026.1;;;12.3;73.6
54439;BME280;40347;53.848;27.498;2023-09-07T04:05:36;1026.1;;;12.4;73.7
54439;BME280;40347;53.848;27.498;2023-09-07T04:10:54;1026.1;;;12.4;73.7
54439;BME280;40347;53.848;27.498;2023-09-07T04:15:45;1026.1;;;12.6;73.8
54439;BME280;40347;53.848;27.498;2023-09-07T04:20:34;1026.1;;;12.7;73.2
54439;BME280;40347;53.848;27.498;2023-09-07T04:26:03;1026.2;;;12.8;73.1
54439;BME280;40347;53.848;27.498;2023-09-07T04:30:41;1026.2;;;12.9;72.6
54439;BME280;40347;53.848;27.498;2023-09-07T04:35:50;1026.2;;;13;72.6
54439;BME280;40347;53.848;27.498;2023-09-07T04:41:13;1026.2;;;13.1;72.6
54439;BME280;40347;53.848;27.498;2023-09-07T04:45:54;1026.2;;;13.3;72.1
54439;BME280;40347;53.848;27.498;2023-09-07T04:50:34;1026.2;;;13.5;71.6
54439;BME280;40347;53.848;27.498;2023-09-07T04:55:37;1026.2;;;13.6;71
54439;BME280;40347;53.848;27.498;2023-09-07T05:00:46;1026.2;;;13.8;70.7
54439;BME280;40347;53.848;27.498;2023-09-07T05:05:41;1026.3;;;14.1;70.3
54439;BME280;40347;53.848;27.498;2023-09-07T05:10:48;1026.3;;;14.2;69.3
54439;BME280;40347;53.848;27.498;2023-09-07T05:15:46;1026.3;;;14.5;68.4
54439;BME280;40347;53.848;27.498;2023-09-07T05:20:35;1026.3;;;14.7;68.1
54439;BME280;40347;53.848;27.498;2023-09-07T05:25:42;1026.4;;;14.8;67.8
54439;BME280;40347;53.848;27.498;2023-09-07T05:30:34;1026.4;;;14.9;66.8
54439;BME280;40347;53.848;27.498;2023-09-07T05:35:34;1026.4;;;15.2;65.9
54439;BME280;40347;53.848;27.498;2023-09-07T05:40:41;1026.4;;;15.4;64.9
54439;BME280;40347;53.848;27.498;2023-09-07T05:45:52;1026.4;;;15.6;64
54439;BME280;40347;53.848;27.498;2023-09-07T05:50:47;1026.5;;;15.8;63.6
54439;BME280;40347;53.848;27.498;2023-09-07T05:55:40;1026.4;;;16;63
54439;BME280;40347;53.848;27.498;2023-09-07T06:00:56;1026.4;;;16.2;62.4
54439;BME280;40347;53.848;27.498;2023-09-07T06:05:54;1026.4;;;16.4;61.9
54439;BME280;40347;53.848;27.498;2023-09-07T06:10:46;1026.5;;;16.6;60.9
54439;BME280;40347;53.848;27.498;2023-09-07T06:15:54;1026.5;;;16.8;60.3
54439;BME280;40347;53.848;27.498;2023-09-07T06:20:48;1026.5;;;17;59.4
54439;BME280;40347;53.848;27.498;2023-09-07T06:26:01;1026.5;;;17.1;59.1
54439;BME280;40347;53.848;27.498;2023-09-07T06:30:35;1026.6;;;17.1;58
54439;BME280;40347;53.848;27.498;2023-09-07T06:36:04;1026.6;;;17.3;58.3
54439;BME280;40347;53.848;27.498;2023-09-07T06:40:52;1026.7;;;17.4;57.3
54439;BME280;40347;53.848;27.498;2023-09-07T06:45:50;1026.7;;;17.6;56.8
54439;BME280;40347;53.848;27.498;2023-09-07T06:51:01;1026.7;;;17.7;56.2
54439;BME280;40347;53.848;27.498;2023-09-07T06:55:34;1026.8;;;17.7;55.4
54439;BME280;40347;53.848;27.498;2023-09-07T07:01:04;1026.8;;;17.9;55.6
54439;BME280;40347;53.848;27.498;2023-09-07T07:05:34;1026.8;;;18;54.6
54439;BME280;40347;53.848;27.498;2023-09-07T07:10:46;1026.8;;;18.1;54.4
54439;BME280;40347;53.848;27.498;2023-09-07T07:15:46;1026.8;;;18.2;54
54439;BME280;40347;53.848;27.498;2023-09-07T07:21:08;1026.9;;;18.2;53.2
54439;BME280;40347;53.848;27.498;2023-09-07T07:25:34;1026.8;;;18.2;53.5
54439;BME280;40347;53.848;27.498;2023-09-07T07:30:50;1026.9;;;18.2;52.4
54439;BME280;40347;53.848;27.498;2023-09-07T07:36:06;1026.8;;;18.3;52.1
54439;BME280;40347;53.848;27.498;2023-09-07T07:40:58;1026.8;;;18.3;52.6
54439;BME280;40347;53.848;27.498;2023-09-07T07:45:48;1026.8;;;18.4;52.4
54439;BME280;40347;53.848;27.498;2023-09-07T07:50:52;1026.8;;;18.4;51.7
54439;BME280;40347;53.848;27.498;2023-09-07T07:55:49;1026.9;;;18.4;52
54439;BME280;40347;53.848;27.498;2023-09-07T08:00:35;1026.9;;;18.6;51.7
54439;BME280;40347;53.848;27.498;2023-09-07T08:05:49;1026.9;;;18.7;51.3
54439;BME280;40347;53.848;27.498;2023-09-07T08:10:53;1027;;;18.6;49.9
54439;BME280;40347;53.848;27.498;2023-09-07T08:15:46;1026.9;;;18.4;50.3
54439;BME280;40347;53.848;27.498;2023-09-07T08:20:35;1027;;;18.4;50
54439;BME280;40347;53.848;27.498;2023-09-07T08:25:35;1027;;;18.3;49.4
54439;BME280;40347;53.848;27.498;2023-09-07T08:30:34;1027;;;18.3;49.3
54439;BME280;40347;53.848;27.498;2023-09-07T08:36:09;1026.9;;;18.4;49.3
54439;BME280;40347;53.848;27.498;2023-09-07T08:40:40;1026.9;;;18.4;49.5
54439;BME280;40347;53.848;27.498;2023-09-07T08:45:41;1026.9;;;18.4;49.4
54439;BME280;40347;53.848;27.498;2023-09-07T08:50:35;1027;;;18.5;49.7
54439;BME280;40347;53.848;27.498;2023-09-07T08:55:35;1027;;;18.6;49.5
54439;BME280;40347;53.848;27.498;2023-09-07T09:00:41;1027;;;18.8;49.5
54439;BME280;40347;53.848;27.498;2023-09-07T09:05:45;1026.9;;;18.8;48.8
54439;BME280;40347;53.848;27.498;2023-09-07T09:10:43;1026.9;;;18.8;48.1
54439;BME280;40347;53.848;27.498;2023-09-07T09:15:35;1026.9;;;18.8;47.5
54439;BME280;40347;53.848;27.498;2023-09-07T09:20:35;1026.9;;;18.7;46.9
54439;BME280;40347;53.848;27.498;2023-09-07T09:25:55;1026.9;;;18.7;47
54439;BME280;40347;53.848;27.498;2023-09-07T09:30:41;1026.8;;;18.8;47.9
54439;BME280;40347;53.848;27.498;2023-09-07T09:36:03;1026.8;;;18.9;48.2
54439;BME280;40347;53.848;27.498;2023-09-07T09:40:49;1026.8;;;18.9;46
54439;BME280;40347;53.848;27.498;2023-09-07T09:46:01;1026.8;;;18.8;46.6
54439;BME280;40347;53.848;27.498;2023-09-07T09:50:35;1026.7;;;18.9;46.2
54439;BME280;40347;53.848;27.498;2023-09-07T09:55:35;1026.7;;;18.9;44.4
54439;BME280;40347;53.848;27.498;2023-09-07T10:00:41;1026.7;;;18.9;44
54439;BME280;40347;53.848;27.498;2023-09-07T10:05:41;1026.7;;;18.8;45.4
54439;BME280;40347;53.848;27.498;2023-09-07T10:10:57;1026.7;;;18.8;46.5
54439;BME280;40347;53.848;27.498;2023-09-07T10:15:35;1026.6;;;18.9;46.7
54439;BME280;40347;53.848;27.498;2023-09-07T10:21:03;1026.6;;;19;45.9
54439;BME280;40347;53.848;27.498;2023-09-07T10:25:41;1026.6;;;19;46.4
54439;BME280;40347;53.848;27.498;2023-09-07T10:30:59;1026.5;;;19.1;45.5
54439;BME280;40347;53.848;27.498;2023-09-07T10:35:35;1026.5;;;19.1;44.8
54439;BME280;40347;53.848;27.498;2023-09-07T10:40:36;1026.6;;;19.1;43.1
54439;BME280;40347;53.848;27.498;2023-09-07T10:46:03;1026.5;;;19.1;44.4
54439;BME280;40347;53.848;27.498;2023-09-07T10:51:03;1026.5;;;19.3;44.3
54439;BME280;40347;53.848;27.498;2023-09-07T10:55:36;1026.5;;;19.3;42.8
54439;BME280;40347;53.848;27.498;2023-09-07T11:00:35;1026.5;;;19.4;44.3
54439;BME280;40347;53.848;27.498;2023-09-07T11:05:55;1026.5;;;19.4;44.6
54439;BME280;40347;53.848;27.498;2023-09-07T11:10:36;1026.4;;;19.5;44.6
54439;BME280;40347;53.848;27.498;2023-09-07T11:15:41;1026.4;;;19.5;44.6
54439;BME280;40347;53.848;27.498;2023-09-07T11:20:35;1026.4;;;19.6;44.7
54439;BME280;40347;53.848;27.498;2023-09-07T11:25:35;1026.3;;;19.6;44.1
54439;BME280;40347;53.848;27.498;2023-09-07T11:30:48;1026.3;;;19.7;44.1
54439;BME280;40347;53.848;27.498;2023-09-07T11:35:35;1026.3;;;19.7;43.7
54439;BME280;40347;53.848;27.498;2023-09-07T11:40:35;1026.3;;;19.8;43.5
54439;BME280;40347;53.848;27.498;2023-09-07T11:45:49;1026.3;;;19.8;43.4
54439;BME280;40347;53.848;27.498;2023-09-07T11:50:57;1026.3;;;19.8;42.9
54439;BME280;40347;53.848;27.498;2023-09-07T11:55:35;1026.3;;;20;43.9
54439;BME280;40347;53.848;27.498;2023-09-07T12:00:41;1026.3;;;20.1;44.2
54439;BME280;40347;53.848;27.498;2023-09-07T12:05:49;1026.2;;;20.2;44.3
54439;BME280;40347;53.848;27.498;2023-09-07T12:10:35;1026.2;;;20.3;44.1
54439;BME280;40347;53.848;27.498;2023-09-07T12:15:47;1026.2;;;20.3;43
54439;BME280;40347;53.848;27.498;2023-09-07T12:21:09;1026.2;;;20.3;43.6
54439;BME280;40347;53.848;27.498;2023-09-07T12:25:55;1026.1;;;20.3;43.5
54439;BME280;40347;53.848;27.498;2023-09-07T12:30:35;1026;;;20.3;43.7
54439;BME280;40347;53.848;27.498;2023-09-07T12:35:35;1026;;;20.3;43.4
54439;BME280;40347;53.848;27.498;2023-09-07T12:40:43;1025.9;;;20.3;43.5
54439;BME280;40347;53.848;27.498;2023-09-07T12:45:49;1025.9;;;20.3;44.1
54439;BME280;40347;53.848;27.498;2023-09-07T12:50:47;1025.8;;;20.4;44.7
54439;BME280;40347;53.848;27.498;2023-09-07T12:55:35;1025.7;;;20.5;44.7
54439;BME280;40347;53.848;27.498;2023-09-07T13:00:35;1025.7;;;20.6;44.7
54439;BME280;40347;53.848;27.498;2023-09-07T13:06:01;1025.7;;;20.5;43.6
54439;BME280;40347;53.848;27.498;2023-09-07T13:10:41;1025.7;;;20.6;43.7
54439;BME280;40347;53.848;27.498;2023-09-07T13:15:47;1025.6;;;20.6;43.4
54439;BME280;40347;53.848;27.498;2023-09-07T13:20:49;1025.5;;;20.7;44.2
54439;BME280;40347;53.848;27.498;2023-09-07T13:25:59;1025.5;;;20.6;44.2
54439;BME280;40347;53.848;27.498;2023-09-07T13:31:19;1025.4;;;20.6;43.9
54439;BME280;40347;53.848;27.498;2023-09-07T13:35:41;1025.5;;;20.7;44
54439;BME280;40347;53.848;27.498;2023-09-07T13:40:47;1025.4;;;20.7;43.7
54439;BME280;40347;53.848;27.498;2023-09-07T13:45:35;1025.4;;;20.7;43.2
54439;BME280;40347;53.848;27.498;2023-09-07T13:50:57;1025.3;;;20.6;43.2
54439;BME280;40347;53.848;27.498;2023-09-07T13:56:01;1025.3;;;20.5;43.5
54439;BME280;40347;53.848;27.498;2023-09-07T14:00:41;1025.2;;;20.5;43.6
54439;BME280;40347;53.848;27.498;2023-09-07T14:05:35;1025.2;;;20.3;43.3
54439;BME280;40347;53.848;27.498;2023-09-07T14:10:35;1025.2;;;20.3;43.7
54439;BME280;40347;53.848;27.498;2023-09-07T14:15:35;1025.3;;;20.2;43
54439;BME280;40347;53.848;27.498;2023-09-07T14:20:43;1025.2;;;20.2;43.3
54439;BME280;40347;53.848;27.498;2023-09-07T14:25:35;1025.2;;;20.1;42.9
54439;BME280;40347;53.848;27.498;2023-09-07T14:30:53;1025.1;;;20;42.5
54439;BME280;40347;53.848;27.498;2023-09-07T14:35:50;1025.1;;;20;41.6
54439;BME280;40347;53.848;27.498;2023-09-07T14:40:35;1025.1;;;20;41.8
54439;BME280;40347;53.848;27.498;2023-09-07T14:46:11;1025.1;;;19.9;42
54439;BME280;40347;53.848;27.498;2023-09-07T14:50:47;1025;;;19.9;42.3
54439;BME280;40347;53.848;27.498;2023-09-07T14:56:19;1025;;;19.8;41.6
54439;BME280;40347;53.848;27.498;2023-09-07T15:00:35;1025;;;19.7;41.4
54439;BME280;40347;53.848;27.498;2023-09-07T15:05:35;1024.9;;;19.7;41.3
54439;BME280;40347;53.848;27.498;2023-09-07T15:10:43;1024.9;;;19.6;41.7
54439;BME280;40347;53.848;27.498;2023-09-07T15:15:35;1024.8;;;19.6;42.3
54439;BME280;40347;53.848;27.498;2023-09-07T15:21:03;1024.9;;;19.5;41.9
54439;BME280;40347;53.848;27.498;2023-09-07T15:26:01;1024.9;;;19.4;42.8
54439;BME280;40347;53.848;27.498;2023-09-07T15:30:49;1024.9;;;19.3;43.2
54439;BME280;40347;53.848;27.498;2023-09-07T15:36:01;1025;;;19.3;43.3
54439;BME280;40347;53.848;27.498;2023-09-07T15:40:47;1024.9;;;19.4;43.2
54439;BME280;40347;53.848;27.498;2023-09-07T15:45:43;1024.9;;;19.3;43.3
54439;BME280;40347;53.848;27.498;2023-09-07T15:50:49;1025;;;19.2;43.6
54439;BME280;40347;53.848;27.498;2023-09-07T15:55:35;1025;;;19.1;44.2
54439;BME280;40347;53.848;27.498;2023-09-07T16:00:45;1025.1;;;19.1;44.3
54439;BME280;40347;53.848;27.498;2023-09-07T16:05:35;1025.1;;;19;45
54439;BME280;40347;53.848;27.498;2023-09-07T16:10:41;1025;;;18.9;45.1
54439;BME280;40347;53.848;27.498;2023-09-07T16:15:35;1025;;;18.8;45.7
54439;BME280;40347;53.848;27.498;2023-09-07T16:20:57;1025;;;18.7;45.7
54439;BME280;40347;53.848;27.498;2023-09-07T16:25:47;1025;;;18.6;45.9
54439;BME280;40347;53.848;27.498;2023-09-07T16:30:47;1025.1;;;18.5;46.3
54439;BME280;40347;53.848;27.498;2023-09-07T16:35:35;1025;;;18.5;46.3
54439;BME280;40347;53.848;27.498;2023-09-07T16:40:35;1025;;;18.4;46.8
54439;BME280;40347;53.848;27.498;2023-09-07T16:45:58;1025;;;18.2;47.3
54439;BME280;40347;53.848;27.498;2023-09-07T16:50:35;1025;;;18;48.1
54439;BME280;40347;53.848;27.498;2023-09-07T16:55:35;1025;;;17.9;48.2
54439;BME280;40347;53.848;27.498;2023-09-07T17:01:02;1025.1;;;17.8;48.8
54439;BME280;40347;53.848;27.498;2023-09-07T17:05:35;1025.1;;;17.6;49.1
54439;BME280;40347;53.848;27.498;2023-09-07T17:10:59;1025.1;;;17.5;49.3
54439;BME280;40347;53.848;27.498;2023-09-07T17:16:01;1025.1;;;17.4;49.8
54439;BME280;40347;53.848;27.498;2023-09-07T17:20:53;1025.1;;;17.3;50.4
54439;BME280;40347;53.848;27.498;2023-09-07T17:25:35;1025.2;;;17.2;50.4
54439;BME280;40347;53.848;27.498;2023-09-07T17:30:35;1025.2;;;17.2;50.8
54439;BME280;40347;53.848;27.498;2023-09-07T17:35:35;1025.2;;;17.1;50.9
54439;BME280;40347;53.848;27.498;2023-09-07T17:40:59;1025.2;;;17;51
54439;BME280;40347;53.848;27.498;2023-09-07T17:45:35;1025.2;;;16.9;51.6
54439;BME280;40347;53.848;27.498;2023-09-07T17:50:47;1025.1;;;16.8;52.3
54439;BME280;40347;53.848;27.498;2023-09-07T17:55:47;1025.1;;;16.7;53
54439;BME280;40347;53.848;27.498;2023-09-07T18:00:35;1025.1;;;16.6;53.2
54439;BME280;40347;53.848;27.498;2023-09-07T18:06:01;1025.1;;;16.4;53.7
54439;BME280;40347;53.848;27.498;2023-09-07T18:10:47;1025.1;;;16.3;53.7
54439;BME280;40347;53.848;27.498;2023-09-07T18:15:41;1025.1;;;16.2;54.2
54439;BME280;40347;53.848;27.498;2023-09-07T18:20:35;1025.1;;;16;54.7
54439;BME280;40347;53.848;27.498;2023-09-07T18:25:41;1025.1;;;16;54.9
54439;BME280;40347;53.848;27.498;2023-09-07T18:30:35;1025;;;15.9;55.2
54439;BME280;40347;53.848;27.498;2023-09-07T18:35:35;1025;;;15.8;55.3
54439;BME280;40347;53.848;27.498;2023-09-07T18:40:43;1025;;;15.7;55.5
54439;BME280;40347;53.848;27.498;2023-09-07T18:45:47;1025.1;;;15.6;56
54439;BME280;40347;53.848;27.498;2023-09-07T18:51:01;1025.1;;;15.5;56.3
54439;BME280;40347;53.848;27.498;2023-09-07T18:56:15;1025.1;;;15.5;56.3
54439;BME280;40347;53.848;27.498;2023-09-07T19:00:47;1025;;;15.5;56.4
54439;BME280;40347;53.848;27.498;2023-09-07T19:05:59;1025;;;15.4;56.6
54439;BME280;40347;53.848;27.498;2023-09-07T19:10:35;1025;;;15.3;56.6
54439;BME280;40347;53.848;27.498;2023-09-07T19:15:36;1025;;;15.3;56.7
54439;BME280;40347;53.848;27.498;2023-09-07T19:20:50;1025.1;;;15.2;57.3
54439;BME280;40347;53.848;27.498;2023-09-07T19:25:55;1025.1;;;15.3;57.2
54439;BME280;40347;53.848;27.498;2023-09-07T19:30:41;1025.1;;;15.2;57.5
54439;BME280;40347;53.848;27.498;2023-09-07T19:35:35;1025;;;15.1;57.6
54439;BME280;40347;53.848;27.498;2023-09-07T19:40:49;1025;;;15;58
54439;BME280;40347;53.848;27.498;2023-09-07T19:46:01;1025;;;15;58.6
54439;BME280;40347;53.848;27.498;2023-09-07T19:50:47;1025;;;14.9;59.3
54439;BME280;40347;53.848;27.498;2023-09-07T19:55:35;1025.1;;;14.8;59.6
54439;BME280;40347;53.848;27.498;2023-09-07T20:00:35;1025.1;;;14.8;59.6
54439;BME280;40347;53.848;27.498;2023-09-07T20:05:53;1025.1;;;14.7;60.2
54439;BME280;40347;53.848;27.498;2023-09-07T20:10:59;1025;;;14.7;60.4
54439;BME280;40347;53.848;27.498;2023-09-07T20:15:36;1025;;;14.7;60.5
54439;BME280;40347;53.848;27.498;2023-09-07T20:20:35;1025;;;14.6;61.2
54439;BME280;40347;53.848;27.498;2023-09-07T20:26:11;1025;;;14.6;61.1
54439;BME280;40347;53.848;27.498;2023-09-07T20:31:01;1025;;;14.5;61.6
54439;BME280;40347;53.848;27.498;2023-09-07T20:35:49;1025.1;;;14.4;61.7
54439;BME280;40347;53.848;27.498;2023-09-07T20:40:35;1025.1;;;14.4;62
54439;BME280;40347;53.848;27.498;2023-09-07T20:45:57;1025;;;14.4;62.1
54439;BME280;40347;53.848;27.498;2023-09-07T20:50:35;1024.9;;;14.2;62.6
54439;BME280;40347;53.848;27.498;2023-09-07T20:55:47;1024.9;;;14.2;62.4
54439;BME280;40347;53.848;27.498;2023-09-07T21:00:49;1024.9;;;14.1;62.6
54439;BME280;40347;53.848;27.498;2023-09-07T21:06:21;1024.9;;;14;62.9
54439;BME280;40347;53.848;27.498;2023-09-07T21:10:53;1024.8;;;13.9;63.4
54439;BME280;40347;53.848;27.498;2023-09-07T21:15:35;1024.8;;;13.9;63.6
54439;BME280;40347;53.848;27.498;2023-09-07T21:20:49;1024.8;;;13.8;63.9
54439;BME280;40347;53.848;27.498;2023-09-07T21:25:49;1024.8;;;13.7;64.1
54439;BME280;40347;53.848;27.498;2023-09-07T21:30:47;1024.9;;;13.6;64.4
54439;BME280;40347;53.848;27.498;2023-09-07T21:35:47;1024.8;;;13.5;65.2
54439;BME280;40347;53.848;27.498;2023-09-07T21:41:01;1024.8;;;13.5;65.6
54439;BME280;40347;53.848;27.498;2023-09-07T21:45:53;1024.8;;;13.5;65.9
54439;BME280;40347;53.848;27.498;2023-09-07T21:50:35;1024.8;;;13.4;66.4
54439;BME280;40347;53.848;27.498;2023-09-07T21:55:35;1024.7;;;13.3;66.4
54439;BME280;40347;53.848;27.498;2023-09-07T22:00:41;1024.7;;;13.3;66.8
54439;BME280;40347;53.848;27.498;2023-09-07T22:05:52;1024.8;;;13.2;67.2
54439;BME280;40347;53.848;27.498;2023-09-07T22:11:09;1024.7;;;13.2;67.5
54439;BME280;40347;53.848;27.498;2023-09-07T22:15:45;1024.7;;;13.3;67.6
54439;BME280;40347;53.848;27.498;2023-09-07T22:20:35;1024.8;;;13.2;67.5
54439;BME280;40347;53.848;27.498;2023-09-07T22:25:47;1024.8;;;13.2;67.6
54439;BME280;40347;53.848;27.498;2023-09-07T22:30:45;1024.7;;;13.1;68
54439;BME280;40347;53.848;27.498;2023-09-07T22:35:41;1024.7;;;13.1;68.4
54439;BME280;40347;53.848;27.498;2023-09-07T22:40:41;1024.7;;;13.1;68.5
54439;BME280;40347;53.848;27.498;2023-09-07T22:45:55;1024.7;;;13.1;68.1
54439;BME280;40347;53.848;27.498;2023-09-07T22:50:53;1024.7;;;13.1;68.1
54439;BME280;40347;53.848;27.498;2023-09-07T22:55:59;1024.7;;;13;68
54439;BME280;40347;53.848;27.498;2023-09-07T23:00:35;1024.8;;;13;68.3
54439;BME280;40347;53.848;27.498;2023-09-07T23:05:59;1024.8;;;12.9;68.6
54439;BME280;40347;53.848;27.498;2023-09-07T23:11:03;1024.8;;;12.9;68.7
54439;BME280;40347;53.848;27.498;2023-09-07T23:15:45;1024.7;;;12.9;68.4
54439;BME280;40347;53.848;27.498;2023-09-07T23:20:57;1024.7;;;12.8;68.7
54439;BME280;40347;53.848;27.498;2023-09-07T23:25:35;1024.7;;;12.7;68.8
54439;BME280;40347;53.848;27.498;2023-09-07T23:30:53;1024.7;;;12.7;69.1
54439;BME280;40347;53.848;27.498;2023-09-07T23:35:41;1024.7;;;12.6;69.3
54439;BME280;40347;53.848;27.498;2023-09-07T23:40:35;1024.6;;;12.6;69.5
54439;BME280;40347;53.848;27.498;2023-09-07T23:45:35;1024.6;;;12.5;69.6
54439;BME280;40347;53.848;27.498;2023-09-07T23:50:49;1024.6;;;12.4;70
54439;BME280;40347;53.848;27.498;2023-09-07T23:55:47;1024.6;;;12.4;70.3
